sensor_id;sensor_type;location;lat;lon;timestamp;pressure;altitude;pressure_sealevel;temperature;humidity
54465;BME280;40374;49.480;20.016;2023-05-12T00:00:12;95100.25;;;3.92;100.00
54465;BME280;40374;49.480;20.016;2023-05-12T00:03:03;95102.34;;;3.90;100.00
54465;BME280;40374;49.480;20.016;2023-05-12T00:05:30;95106.50;;;3.86;100.00
54465;BME280;40374;49.480;20.016;2023-05-12T00:07:58;95108.00;;;3.82;100.00
54465;BME280;40374;49.480;20.016;2023-05-12T00:10:27;95102.59;;;3.65;100.00
54465;BME280;40374;49.480;20.016;2023-05-12T00:12:54;95108.84;;;3.59;100.00
54465;BME280;40374;49.480;20.016;2023-05-12T00:15:22;95116.81;;;3.59;100.00
54465;BME280;40374;49.480;20.016;2023-05-12T00:17:49;95114.41;;;3.57;100.00
54465;BME280;40374;49.480;20.016;2023-05-12T00:20:19;95104.13;;;3.49;100.00
54465;BME280;40374;49.480;20.016;2023-05-12T00:22:47;95111.84;;;3.51;100.00
54465;BME280;40374;49.480;20.016;2023-05-12T00:25:14;95113.47;;;3.40;100.00
54465;BME280;40374;49.480;20.016;2023-05-12T00:27:42;95118.78;;;3.28;100.00
54465;BME280;40374;49.480;20.016;2023-05-12T00:30:10;95108.50;;;3.20;100.00
54465;BME280;40374;49.480;20.016;2023-05-12T00:32:37;95107.22;;;3.22;100.00
54465;BME280;40374;49.480;20.016;2023-05-12T00:35:05;95117.84;;;3.22;100.00
54465;BME280;40374;49.480;20.016;2023-05-12T00:37:32;95108.84;;;3.12;100.00
54465;BME280;40374;49.480;20.016;2023-05-12T00:40:00;95107.91;;;3.06;100.00
54465;BME280;40374;49.480;20.016;2023-05-12T00:42:28;95115.06;;;3.05;100.00
54465;BME280;40374;49.480;20.016;2023-05-12T00:44:55;95116.56;;;3.01;100.00
54465;BME280;40374;49.480;20.016;2023-05-12T00:47:23;95110.41;;;2.89;100.00
54465;BME280;40374;49.480;20.016;2023-05-12T00:49:51;95115.72;;;2.77;100.00
54465;BME280;40374;49.480;20.016;2023-05-12T00:52:19;95111.78;;;2.80;100.00
54465;BME280;40374;49.480;20.016;2023-05-12T00:54:47;95124.47;;;2.78;100.00
54465;BME280;40374;49.480;20.016;2023-05-12T00:57:15;95118.13;;;2.79;100.00
54465;BME280;40374;49.480;20.016;2023-05-12T00:59:45;95111.31;;;2.71;100.00
54465;BME280;40374;49.480;20.016;2023-05-12T01:02:12;95121.91;;;2.71;100.00
54465;BME280;40374;49.480;20.016;2023-05-12T01:04:40;95135.06;;;2.66;100.00
54465;BME280;40374;49.480;20.016;2023-05-12T01:07:21;95116.88;;;2.51;100.00
54465;BME280;40374;49.480;20.016;2023-05-12T01:09:53;95127.38;;;2.46;100.00
54465;BME280;40374;49.480;20.016;2023-05-12T01:12:26;95133.19;;;2.36;100.00
54465;BME280;40374;49.480;20.016;2023-05-12T01:14:55;95115.81;;;2.22;100.00
54465;BME280;40374;49.480;20.016;2023-05-12T01:17:30;95122.41;;;2.01;100.00
54465;BME280;40374;49.480;20.016;2023-05-12T01:20:03;95119.84;;;1.94;100.00
54465;BME280;40374;49.480;20.016;2023-05-12T01:22:32;95123.97;;;2.09;100.00
54465;BME280;40374;49.480;20.016;2023-05-12T01:25:06;95129.19;;;2.15;100.00
54465;BME280;40374;49.480;20.016;2023-05-12T01:27:37;95124.97;;;2.08;100.00
54465;BME280;40374;49.480;20.016;2023-05-12T01:30:07;95137.81;;;2.11;100.00
54465;BME280;40374;49.480;20.016;2023-05-12T01:32:37;95128.50;;;2.01;100.00
54465;BME280;40374;49.480;20.016;2023-05-12T01:35:05;95124.69;;;1.97;100.00
54465;BME280;40374;49.480;20.016;2023-05-12T01:37:35;95126.44;;;2.03;100.00
54465;BME280;40374;49.480;20.016;2023-05-12T01:40:04;95123.06;;;2.15;100.00
54465;BME280;40374;49.480;20.016;2023-05-12T01:42:32;95131.69;;;2.10;100.00
54465;BME280;40374;49.480;20.016;2023-05-12T01:44:59;95126.75;;;2.14;100.00
54465;BME280;40374;49.480;20.016;2023-05-12T01:47:27;95133.59;;;2.03;100.00
54465;BME280;40374;49.480;20.016;2023-05-12T01:50:02;95125.72;;;1.96;100.00
54465;BME280;40374;49.480;20.016;2023-05-12T01:52:30;95131.31;;;1.88;100.00
54465;BME280;40374;49.480;20.016;2023-05-12T01:54:57;95131.69;;;1.92;100.00
54465;BME280;40374;49.480;20.016;2023-05-12T01:57:29;95134.78;;;1.89;100.00
54465;BME280;40374;49.480;20.016;2023-05-12T01:59:58;95135.38;;;1.91;100.00
54465;BME280;40374;49.480;20.016;2023-05-12T02:02:28;95122.19;;;1.84;100.00
54465;BME280;40374;49.480;20.016;2023-05-12T02:04:58;95123.06;;;1.78;100.00
54465;BME280;40374;49.480;20.016;2023-05-12T02:07:26;95120.28;;;1.73;100.00
54465;BME280;40374;49.480;20.016;2023-05-12T02:09:53;95127.78;;;1.76;100.00
54465;BME280;40374;49.480;20.016;2023-05-12T02:12:21;95113.00;;;1.68;100.00
54465;BME280;40374;49.480;20.016;2023-05-12T02:14:49;95120.50;;;1.71;100.00
54465;BME280;40374;49.480;20.016;2023-05-12T02:17:16;95118.06;;;1.70;100.00
54465;BME280;40374;49.480;20.016;2023-05-12T02:19:45;95113.03;;;1.61;100.00
54465;BME280;40374;49.480;20.016;2023-05-12T02:22:14;95122.75;;;1.68;100.00
54465;BME280;40374;49.480;20.016;2023-05-12T02:24:42;95125.78;;;1.71;100.00
54465;BME280;40374;49.480;20.016;2023-05-12T02:27:10;95116.44;;;1.69;100.00
54465;BME280;40374;49.480;20.016;2023-05-12T02:29:38;95124.53;;;1.74;100.00
54465;BME280;40374;49.480;20.016;2023-05-12T02:32:05;95126.00;;;1.70;100.00
54465;BME280;40374;49.480;20.016;2023-05-12T02:34:34;95119.81;;;1.57;100.00
54465;BME280;40374;49.480;20.016;2023-05-12T02:37:01;95133.66;;;1.59;100.00
54465;BME280;40374;49.480;20.016;2023-05-12T02:39:29;95131.75;;;1.67;100.00
54465;BME280;40374;49.480;20.016;2023-05-12T02:41:57;95133.38;;;1.68;100.00
54465;BME280;40374;49.480;20.016;2023-05-12T02:44:24;95133.81;;;1.65;100.00
54465;BME280;40374;49.480;20.016;2023-05-12T02:46:52;95140.72;;;1.66;100.00
54465;BME280;40374;49.480;20.016;2023-05-12T02:49:19;95137.94;;;1.60;100.00
54465;BME280;40374;49.480;20.016;2023-05-12T02:51:47;95136.75;;;1.56;100.00
54465;BME280;40374;49.480;20.016;2023-05-12T02:54:15;95140.28;;;1.50;100.00
54465;BME280;40374;49.480;20.016;2023-05-12T02:56:42;95122.28;;;1.34;100.00
54465;BME280;40374;49.480;20.016;2023-05-12T02:59:10;95130.69;;;1.31;100.00
54465;BME280;40374;49.480;20.016;2023-05-12T03:01:38;95139.50;;;1.25;100.00
54465;BME280;40374;49.480;20.016;2023-05-12T03:04:05;95144.13;;;1.29;100.00
54465;BME280;40374;49.480;20.016;2023-05-12T03:06:33;95133.84;;;1.39;100.00
54465;BME280;40374;49.480;20.016;2023-05-12T03:09:00;95112.94;;;1.31;100.00
54465;BME280;40374;49.480;20.016;2023-05-12T03:11:28;95129.81;;;1.55;100.00
54465;BME280;40374;49.480;20.016;2023-05-12T03:13:56;95120.72;;;1.51;100.00
54465;BME280;40374;49.480;20.016;2023-05-12T03:16:24;95127.75;;;1.57;100.00
54465;BME280;40374;49.480;20.016;2023-05-12T03:18:51;95131.88;;;1.53;100.00
54465;BME280;40374;49.480;20.016;2023-05-12T03:21:19;95124.31;;;1.57;100.00
54465;BME280;40374;49.480;20.016;2023-05-12T03:23:46;95120.13;;;1.49;100.00
54465;BME280;40374;49.480;20.016;2023-05-12T03:26:13;95133.50;;;1.54;100.00
54465;BME280;40374;49.480;20.016;2023-05-12T03:28:40;95136.91;;;1.61;100.00
54465;BME280;40374;49.480;20.016;2023-05-12T03:31:08;95131.38;;;1.63;100.00
54465;BME280;40374;49.480;20.016;2023-05-12T03:33:36;95138.03;;;1.72;100.00
54465;BME280;40374;49.480;20.016;2023-05-12T03:36:03;95127.25;;;1.67;100.00
54465;BME280;40374;49.480;20.016;2023-05-12T03:38:31;95123.59;;;1.68;100.00
54465;BME280;40374;49.480;20.016;2023-05-12T03:41:05;95124.03;;;1.83;100.00
54465;BME280;40374;49.480;20.016;2023-05-12T03:43:34;95135.66;;;1.82;100.00
54465;BME280;40374;49.480;20.016;2023-05-12T03:46:02;95141.41;;;1.79;100.00
54465;BME280;40374;49.480;20.016;2023-05-12T03:48:30;95142.59;;;1.83;100.00
54465;BME280;40374;49.480;20.016;2023-05-12T03:50:57;95138.41;;;1.94;100.00
54465;BME280;40374;49.480;20.016;2023-05-12T03:53:26;95145.25;;;2.02;100.00
54465;BME280;40374;49.480;20.016;2023-05-12T03:55:54;95142.66;;;2.14;100.00
54465;BME280;40374;49.480;20.016;2023-05-12T03:58:22;95147.44;;;2.23;100.00
54465;BME280;40374;49.480;20.016;2023-05-12T04:00:51;95146.88;;;2.21;100.00
54465;BME280;40374;49.480;20.016;2023-05-12T04:03:18;95149.44;;;2.28;100.00
54465;BME280;40374;49.480;20.016;2023-05-12T04:05:47;95149.63;;;2.45;100.00
54465;BME280;40374;49.480;20.016;2023-05-12T04:08:14;95143.00;;;2.54;100.00
54465;BME280;40374;49.480;20.016;2023-05-12T04:10:42;95142.59;;;2.69;100.00
54465;BME280;40374;49.480;20.016;2023-05-12T04:13:12;95140.09;;;2.86;100.00
54465;BME280;40374;49.480;20.016;2023-05-12T04:15:40;95149.44;;;2.89;100.00
54465;BME280;40374;49.480;20.016;2023-05-12T04:18:08;95148.47;;;3.13;100.00
54465;BME280;40374;49.480;20.016;2023-05-12T04:20:37;95143.59;;;3.10;100.00
54465;BME280;40374;49.480;20.016;2023-05-12T04:23:04;95144.56;;;3.28;100.00
54465;BME280;40374;49.480;20.016;2023-05-12T04:25:33;95143.41;;;3.35;100.00
54465;BME280;40374;49.480;20.016;2023-05-12T04:28:00;95158.69;;;3.52;100.00
54465;BME280;40374;49.480;20.016;2023-05-12T04:30:28;95149.09;;;3.62;100.00
54465;BME280;40374;49.480;20.016;2023-05-12T04:32:55;95145.25;;;3.82;100.00
54465;BME280;40374;49.480;20.016;2023-05-12T04:35:24;95144.78;;;3.97;100.00
54465;BME280;40374;49.480;20.016;2023-05-12T04:37:51;95147.06;;;4.17;100.00
54465;BME280;40374;49.480;20.016;2023-05-12T04:40:19;95134.03;;;4.44;100.00
54465;BME280;40374;49.480;20.016;2023-05-12T04:42:53;95137.03;;;4.76;100.00
54465;BME280;40374;49.480;20.016;2023-05-12T04:45:24;95137.34;;;5.08;100.00
54465;BME280;40374;49.480;20.016;2023-05-12T04:47:51;95117.78;;;5.37;100.00
54465;BME280;40374;49.480;20.016;2023-05-12T04:50:19;95115.41;;;5.74;100.00
54465;BME280;40374;49.480;20.016;2023-05-12T04:52:47;95133.41;;;6.18;100.00
54465;BME280;40374;49.480;20.016;2023-05-12T04:55:14;95131.63;;;6.50;100.00
54465;BME280;40374;49.480;20.016;2023-05-12T04:57:42;95120.41;;;6.76;100.00
54465;BME280;40374;49.480;20.016;2023-05-12T05:00:10;95125.31;;;7.11;100.00
54465;BME280;40374;49.480;20.016;2023-05-12T07:37:44;95137.78;;;15.01;61.25
54465;BME280;40374;49.480;20.016;2023-05-12T07:40:12;95144.25;;;15.28;59.87
54465;BME280;40374;49.480;20.016;2023-05-12T07:42:39;95143.00;;;15.48;55.97
54465;BME280;40374;49.480;20.016;2023-05-12T07:45:07;95135.94;;;15.60;52.49
54465;BME280;40374;49.480;20.016;2023-05-12T07:47:34;95131.47;;;15.78;55.41
54465;BME280;40374;49.480;20.016;2023-05-12T07:50:03;95132.44;;;16.05;55.74
54465;BME280;40374;49.480;20.016;2023-05-12T07:52:31;95138.97;;;16.35;53.86
54465;BME280;40374;49.480;20.016;2023-05-12T07:54:59;95118.44;;;16.43;51.01
54465;BME280;40374;49.480;20.016;2023-05-12T07:57:26;95143.59;;;16.66;49.07
54465;BME280;40374;49.480;20.016;2023-05-12T07:59:54;95127.63;;;16.73;49.25
54465;BME280;40374;49.480;20.016;2023-05-12T08:02:21;95143.38;;;16.85;49.34
54465;BME280;40374;49.480;20.016;2023-05-12T08:04:49;95128.03;;;16.80;48.45
54465;BME280;40374;49.480;20.016;2023-05-12T08:07:16;95145.44;;;16.88;47.91
54465;BME280;40374;49.480;20.016;2023-05-12T08:09:44;95140.88;;;17.06;47.60
54465;BME280;40374;49.480;20.016;2023-05-12T08:12:11;95147.75;;;17.21;48.03
54465;BME280;40374;49.480;20.016;2023-05-12T08:14:39;95146.69;;;17.39;47.76
54465;BME280;40374;49.480;20.016;2023-05-12T08:17:06;95146.03;;;17.51;46.13
54465;BME280;40374;49.480;20.016;2023-05-12T08:19:35;95153.75;;;17.58;45.75
54465;BME280;40374;49.480;20.016;2023-05-12T08:22:03;95158.38;;;17.75;45.06
54465;BME280;40374;49.480;20.016;2023-05-12T08:24:31;95149.56;;;17.60;43.25
54465;BME280;40374;49.480;20.016;2023-05-12T08:26:58;95156.59;;;17.44;43.12
54465;BME280;40374;49.480;20.016;2023-05-12T08:29:25;95163.09;;;17.17;43.32
54465;BME280;40374;49.480;20.016;2023-05-12T08:31:53;95161.66;;;17.11;44.48
54465;BME280;40374;49.480;20.016;2023-05-12T08:34:20;95151.16;;;17.35;45.46
54465;BME280;40374;49.480;20.016;2023-05-12T08:36:48;95165.53;;;17.53;44.08
54465;BME280;40374;49.480;20.016;2023-05-12T08:39:16;95164.56;;;17.32;43.86
54465;BME280;40374;49.480;20.016;2023-05-12T08:41:51;95151.09;;;17.09;45.83
54465;BME280;40374;49.480;20.016;2023-05-12T08:44:21;95149.22;;;17.27;45.68
54465;BME280;40374;49.480;20.016;2023-05-12T08:46:54;95156.47;;;17.58;44.91
54465;BME280;40374;49.480;20.016;2023-05-12T08:49:28;95155.78;;;17.78;44.05
54465;BME280;40374;49.480;20.016;2023-05-12T08:52:00;95151.19;;;17.88;44.86
54465;BME280;40374;49.480;20.016;2023-05-12T08:54:28;95153.41;;;18.12;45.01
54465;BME280;40374;49.480;20.016;2023-05-12T08:56:56;95159.13;;;18.36;43.17
54465;BME280;40374;49.480;20.016;2023-05-12T08:59:26;95154.19;;;18.68;52.70
54465;BME280;40374;49.480;20.016;2023-05-12T09:01:54;95142.72;;;19.01;43.53
54465;BME280;40374;49.480;20.016;2023-05-12T09:04:22;95150.56;;;19.02;42.26
54465;BME280;40374;49.480;20.016;2023-05-12T09:06:50;95154.22;;;19.06;42.30
54465;BME280;40374;49.480;20.016;2023-05-12T09:09:24;95155.03;;;19.07;41.54
54465;BME280;40374;49.480;20.016;2023-05-12T09:11:55;95158.97;;;18.89;41.24
54465;BME280;40374;49.480;20.016;2023-05-12T09:14:24;95163.00;;;18.74;40.56
54465;BME280;40374;49.480;20.016;2023-05-12T09:16:56;95163.31;;;18.72;40.74
54465;BME280;40374;49.480;20.016;2023-05-12T09:19:26;95163.38;;;18.63;40.20
54465;BME280;40374;49.480;20.016;2023-05-12T09:21:54;95181.25;;;18.26;41.08
54465;BME280;40374;49.480;20.016;2023-05-12T09:24:33;95172.78;;;17.75;41.48
54465;BME280;40374;49.480;20.016;2023-05-12T09:27:02;95174.03;;;17.52;42.64
54465;BME280;40374;49.480;20.016;2023-05-12T09:29:30;95177.38;;;17.57;42.09
54465;BME280;40374;49.480;20.016;2023-05-12T09:32:11;95165.88;;;17.60;42.42
54465;BME280;40374;49.480;20.016;2023-05-12T09:34:38;95170.53;;;17.77;42.37
54465;BME280;40374;49.480;20.016;2023-05-12T09:37:07;95161.75;;;18.07;42.99
54465;BME280;40374;49.480;20.016;2023-05-12T09:39:35;95169.84;;;18.33;41.89
54465;BME280;40374;49.480;20.016;2023-05-12T09:42:03;95165.09;;;18.21;42.07
54465;BME280;40374;49.480;20.016;2023-05-12T09:44:31;95149.84;;;18.20;42.40
54465;BME280;40374;49.480;20.016;2023-05-12T09:47:06;95164.25;;;18.38;41.13
54465;BME280;40374;49.480;20.016;2023-05-12T09:49:33;95167.34;;;17.93;40.17
54465;BME280;40374;49.480;20.016;2023-05-12T09:52:02;95171.16;;;17.39;41.02
54465;BME280;40374;49.480;20.016;2023-05-12T09:54:33;95168.50;;;16.99;41.46
54465;BME280;40374;49.480;20.016;2023-05-12T09:57:02;95171.34;;;16.63;42.31
54465;BME280;40374;49.480;20.016;2023-05-12T09:59:35;95170.72;;;16.57;43.34
54465;BME280;40374;49.480;20.016;2023-05-12T10:02:07;95169.00;;;17.01;43.55
54465;BME280;40374;49.480;20.016;2023-05-12T10:04:59;95157.13;;;17.90;42.82
54465;BME280;40374;49.480;20.016;2023-05-12T10:07:29;95166.47;;;18.92;41.80
54465;BME280;40374;49.480;20.016;2023-05-12T10:09:59;95137.41;;;19.97;40.78
54465;BME280;40374;49.480;20.016;2023-05-12T10:12:31;95148.78;;;21.03;37.33
54465;BME280;40374;49.480;20.016;2023-05-12T10:14:59;95148.59;;;21.73;37.01
54465;BME280;40374;49.480;20.016;2023-05-12T10:17:26;95146.69;;;22.02;34.95
54465;BME280;40374;49.480;20.016;2023-05-12T10:19:58;95129.72;;;22.24;36.00
54465;BME280;40374;49.480;20.016;2023-05-12T10:22:27;95138.25;;;22.51;35.95
54465;BME280;40374;49.480;20.016;2023-05-12T10:24:56;95134.41;;;22.40;34.82
54465;BME280;40374;49.480;20.016;2023-05-12T10:27:24;95131.19;;;22.22;35.11
54465;BME280;40374;49.480;20.016;2023-05-12T10:32:20;95133.13;;;21.40;35.34
54465;BME280;40374;49.480;20.016;2023-05-12T10:34:48;95129.03;;;21.59;37.01
54465;BME280;40374;49.480;20.016;2023-05-12T10:37:16;95130.88;;;22.39;34.48
54465;BME280;40374;49.480;20.016;2023-05-12T10:39:49;95124.69;;;22.26;35.33
54465;BME280;40374;49.480;20.016;2023-05-12T10:42:20;95121.97;;;22.58;35.13
54465;BME280;40374;49.480;20.016;2023-05-12T10:44:53;95118.16;;;22.95;34.47
54465;BME280;40374;49.480;20.016;2023-05-12T10:47:25;95116.66;;;23.29;33.26
54465;BME280;40374;49.480;20.016;2023-05-12T10:50:02;95125.03;;;23.36;33.74
54465;BME280;40374;49.480;20.016;2023-05-12T10:52:29;95127.16;;;23.78;33.16
54465;BME280;40374;49.480;20.016;2023-05-12T10:55:01;95129.13;;;23.78;32.93
54465;BME280;40374;49.480;20.016;2023-05-12T10:57:31;95140.09;;;23.62;32.44
54465;BME280;40374;49.480;20.016;2023-05-12T11:00:00;95124.94;;;23.48;32.58
54465;BME280;40374;49.480;20.016;2023-05-12T11:02:30;95132.88;;;23.18;33.81
54465;BME280;40374;49.480;20.016;2023-05-12T11:05:09;95126.34;;;23.07;33.03
54465;BME280;40374;49.480;20.016;2023-05-12T11:07:47;95126.25;;;22.27;33.43
54465;BME280;40374;49.480;20.016;2023-05-12T11:10:17;95146.47;;;21.54;34.81
54465;BME280;40374;49.480;20.016;2023-05-12T11:12:46;95119.03;;;21.79;34.48
54465;BME280;40374;49.480;20.016;2023-05-12T11:15:14;95129.28;;;22.38;33.82
54465;BME280;40374;49.480;20.016;2023-05-12T11:17:44;95129.78;;;22.00;33.96
54465;BME280;40374;49.480;20.016;2023-05-12T11:20:25;95132.13;;;21.85;35.07
54465;BME280;40374;49.480;20.016;2023-05-12T11:22:55;95132.66;;;22.19;34.79
54465;BME280;40374;49.480;20.016;2023-05-12T11:25:27;95110.91;;;22.55;34.25
54465;BME280;40374;49.480;20.016;2023-05-12T11:27:56;95124.97;;;22.37;33.53
54465;BME280;40374;49.480;20.016;2023-05-12T11:30:24;95132.31;;;21.64;33.89
54465;BME280;40374;49.480;20.016;2023-05-12T11:33:01;95131.22;;;20.67;34.47
54465;BME280;40374;49.480;20.016;2023-05-12T11:35:30;95129.84;;;19.94;35.79
54465;BME280;40374;49.480;20.016;2023-05-12T11:37:58;95136.84;;;19.62;36.31
54465;BME280;40374;49.480;20.016;2023-05-12T11:40:26;95125.13;;;19.19;37.05
54465;BME280;40374;49.480;20.016;2023-05-12T11:43:31;95117.09;;;20.19;36.93
54465;BME280;40374;49.480;20.016;2023-05-12T11:45:59;95129.50;;;21.36;35.57
54465;BME280;40374;49.480;20.016;2023-05-12T11:48:33;95127.91;;;22.16;34.38
54465;BME280;40374;49.480;20.016;2023-05-12T11:51:01;95132.06;;;22.86;33.54
54465;BME280;40374;49.480;20.016;2023-05-12T11:53:28;95122.44;;;23.08;32.81
54465;BME280;40374;49.480;20.016;2023-05-12T11:55:56;95109.88;;;23.42;32.27
54465;BME280;40374;49.480;20.016;2023-05-12T11:58:25;95117.91;;;24.25;31.15
54465;BME280;40374;49.480;20.016;2023-05-12T12:00:53;95108.88;;;24.94;30.28
54465;BME280;40374;49.480;20.016;2023-05-12T12:03:21;95109.97;;;25.66;29.66
54465;BME280;40374;49.480;20.016;2023-05-12T12:06:01;95104.03;;;26.62;28.67
54465;BME280;40374;49.480;20.016;2023-05-12T12:08:29;95110.66;;;26.98;28.57
54465;BME280;40374;49.480;20.016;2023-05-12T12:10:57;95108.06;;;26.34;28.78
54465;BME280;40374;49.480;20.016;2023-05-12T12:13:27;95096.28;;;24.47;29.59
54465;BME280;40374;49.480;20.016;2023-05-12T12:15:54;95123.56;;;22.75;31.62
54465;BME280;40374;49.480;20.016;2023-05-12T12:21:24;95123.22;;;22.77;33.33
54465;BME280;40374;49.480;20.016;2023-05-12T12:23:51;95126.13;;;23.67;32.09
54465;BME280;40374;49.480;20.016;2023-05-12T12:26:19;95112.75;;;24.66;31.41
54465;BME280;40374;49.480;20.016;2023-05-12T12:28:48;95119.00;;;24.86;30.32
54465;BME280;40374;49.480;20.016;2023-05-12T12:31:16;95116.81;;;23.91;30.32
54465;BME280;40374;49.480;20.016;2023-05-12T12:33:43;95127.03;;;22.56;31.29
54465;BME280;40374;49.480;20.016;2023-05-12T12:36:11;95142.94;;;21.29;33.67
54465;BME280;40374;49.480;20.016;2023-05-12T12:38:39;95135.97;;;20.12;35.23
54465;BME280;40374;49.480;20.016;2023-05-12T12:41:07;95132.72;;;19.35;36.90
54465;BME280;40374;49.480;20.016;2023-05-12T12:43:34;95134.81;;;19.08;37.65
54465;BME280;40374;49.480;20.016;2023-05-12T12:46:34;95129.53;;;19.96;37.11
54465;BME280;40374;49.480;20.016;2023-05-12T12:49:02;95132.44;;;20.12;36.47
54465;BME280;40374;49.480;20.016;2023-05-12T12:51:30;95138.22;;;19.77;36.08
54465;BME280;40374;49.480;20.016;2023-05-12T12:54:12;95120.66;;;19.15;36.84
54465;BME280;40374;49.480;20.016;2023-05-12T12:56:39;95132.09;;;18.70;38.09
54465;BME280;40374;49.480;20.016;2023-05-12T12:59:07;95122.44;;;18.34;38.77
54465;BME280;40374;49.480;20.016;2023-05-12T13:01:34;95136.94;;;18.08;39.18
54465;BME280;40374;49.480;20.016;2023-05-12T13:04:02;95133.25;;;17.87;38.78
54465;BME280;40374;49.480;20.016;2023-05-12T13:06:30;95124.44;;;17.72;39.40
54465;BME280;40374;49.480;20.016;2023-05-12T13:08:58;95126.34;;;17.80;40.24
54465;BME280;40374;49.480;20.016;2023-05-12T13:11:26;95126.38;;;17.98;40.43
54465;BME280;40374;49.480;20.016;2023-05-12T13:13:54;95124.59;;;18.02;40.21
54465;BME280;40374;49.480;20.016;2023-05-12T13:16:24;95129.09;;;17.98;40.13
54465;BME280;40374;49.480;20.016;2023-05-12T13:18:52;95120.59;;;17.82;39.81
54465;BME280;40374;49.480;20.016;2023-05-12T13:21:19;95115.00;;;17.52;39.92
54465;BME280;40374;49.480;20.016;2023-05-12T13:23:48;95133.56;;;17.33;41.09
54465;BME280;40374;49.480;20.016;2023-05-12T13:26:15;95129.69;;;17.08;41.14
54465;BME280;40374;49.480;20.016;2023-05-12T13:28:43;95120.50;;;16.86;41.37
54465;BME280;40374;49.480;20.016;2023-05-12T13:31:10;95121.16;;;16.83;42.02
54465;BME280;40374;49.480;20.016;2023-05-12T13:33:38;95120.38;;;16.91;42.49
54465;BME280;40374;49.480;20.016;2023-05-12T13:36:05;95122.78;;;17.01;42.01
54465;BME280;40374;49.480;20.016;2023-05-12T13:38:33;95121.06;;;17.23;41.25
54465;BME280;40374;49.480;20.016;2023-05-12T13:41:01;95114.88;;;17.83;41.18
54465;BME280;40374;49.480;20.016;2023-05-12T13:43:28;95102.22;;;18.43;38.78
54465;BME280;40374;49.480;20.016;2023-05-12T13:45:55;95108.22;;;18.66;38.34
54465;BME280;40374;49.480;20.016;2023-05-12T13:48:25;95112.44;;;18.55;37.53
54465;BME280;40374;49.480;20.016;2023-05-12T13:50:52;95110.59;;;18.30;37.71
54465;BME280;40374;49.480;20.016;2023-05-12T13:53:25;95098.16;;;18.11;39.02
54465;BME280;40374;49.480;20.016;2023-05-12T13:55:53;95110.81;;;18.07;39.88
54465;BME280;40374;49.480;20.016;2023-05-12T13:58:21;95114.53;;;17.94;39.52
54465;BME280;40374;49.480;20.016;2023-05-12T14:00:49;95112.44;;;17.73;39.84
54465;BME280;40374;49.480;20.016;2023-05-12T14:03:17;95108.28;;;17.58;40.33
54465;BME280;40374;49.480;20.016;2023-05-12T14:05:44;95099.81;;;17.42;40.62
54465;BME280;40374;49.480;20.016;2023-05-12T14:08:12;95106.19;;;17.47;41.26
54465;BME280;40374;49.480;20.016;2023-05-12T14:10:39;95099.81;;;17.60;41.40
54465;BME280;40374;49.480;20.016;2023-05-12T14:13:07;95108.59;;;17.74;41.19
54465;BME280;40374;49.480;20.016;2023-05-12T14:15:35;95115.16;;;18.08;41.03
54465;BME280;40374;49.480;20.016;2023-05-12T14:19:55;95103.25;;;19.28;39.70
54465;BME280;40374;49.480;20.016;2023-05-12T14:22:23;95098.59;;;19.71;39.55
54465;BME280;40374;49.480;20.016;2023-05-12T14:24:52;95090.47;;;19.83;39.39
54465;BME280;40374;49.480;20.016;2023-05-12T14:27:22;95091.59;;;19.61;38.23
54465;BME280;40374;49.480;20.016;2023-05-12T14:29:52;95094.69;;;19.09;38.34
54465;BME280;40374;49.480;20.016;2023-05-12T14:32:20;95100.94;;;18.41;38.70
54465;BME280;40374;49.480;20.016;2023-05-12T14:34:47;95096.09;;;17.82;40.27
54465;BME280;40374;49.480;20.016;2023-05-12T14:37:15;95103.00;;;17.44;40.94
54465;BME280;40374;49.480;20.016;2023-05-12T14:39:44;95109.88;;;17.16;41.63
54465;BME280;40374;49.480;20.016;2023-05-12T14:42:11;95119.41;;;16.87;41.68
54465;BME280;40374;49.480;20.016;2023-05-12T14:44:39;95112.06;;;16.56;42.38
54465;BME280;40374;49.480;20.016;2023-05-12T14:47:06;95108.66;;;16.42;43.28
54465;BME280;40374;49.480;20.016;2023-05-12T14:49:35;95111.69;;;16.32;43.99
54465;BME280;40374;49.480;20.016;2023-05-12T14:52:02;95122.34;;;16.28;44.44
54465;BME280;40374;49.480;20.016;2023-05-12T14:54:32;95120.09;;;16.21;44.89
54465;BME280;40374;49.480;20.016;2023-05-12T14:56:59;95120.16;;;16.08;45.35
54465;BME280;40374;49.480;20.016;2023-05-12T14:59:28;95128.59;;;16.06;45.95
54465;BME280;40374;49.480;20.016;2023-05-12T15:01:58;95114.69;;;15.99;46.31
54465;BME280;40374;49.480;20.016;2023-05-12T15:04:25;95122.69;;;16.04;46.38
54465;BME280;40374;49.480;20.016;2023-05-12T15:06:53;95118.38;;;16.03;46.20
54465;BME280;40374;49.480;20.016;2023-05-12T15:09:21;95121.44;;;16.10;46.58
54465;BME280;40374;49.480;20.016;2023-05-12T15:11:49;95114.28;;;16.14;46.77
54465;BME280;40374;49.480;20.016;2023-05-12T15:14:17;95120.31;;;16.34;46.52
54465;BME280;40374;49.480;20.016;2023-05-12T15:16:45;95120.78;;;16.76;46.02
54465;BME280;40374;49.480;20.016;2023-05-12T15:19:12;95100.59;;;17.69;45.17
54465;BME280;40374;49.480;20.016;2023-05-12T15:21:40;95110.59;;;18.30;43.64
54465;BME280;40374;49.480;20.016;2023-05-12T15:24:07;95107.66;;;18.43;42.93
54465;BME280;40374;49.480;20.016;2023-05-12T15:26:36;95112.66;;;18.33;43.19
54465;BME280;40374;49.480;20.016;2023-05-12T15:29:07;95096.91;;;18.00;42.48
54465;BME280;40374;49.480;20.016;2023-05-12T15:31:34;95101.09;;;17.71;43.35
54465;BME280;40374;49.480;20.016;2023-05-12T15:34:02;95106.19;;;17.47;43.39
54465;BME280;40374;49.480;20.016;2023-05-12T15:36:29;95105.91;;;17.39;43.93
54465;BME280;40374;49.480;20.016;2023-05-12T15:38:58;95103.31;;;17.34;44.36
54465;BME280;40374;49.480;20.016;2023-05-12T15:41:26;95103.00;;;17.18;44.47